createdAt,value
2018-06-08T00:00:50.195Z,170.47
2018-06-08T00:03:18.103Z,170.10
2018-06-08T00:05:46.039Z,167.23
2018-06-08T00:08:14.104Z,155.60
2018-06-08T00:10:42.069Z,149.77
2018-06-08T00:13:10.038Z,131.27
2018-06-08T00:15:37.913Z,137.97
2018-06-08T00:18:05.687Z,155.67
2018-06-08T00:20:33.652Z,176.93
2018-06-08T00:23:01.591Z,187.10
2018-06-08T00:25:29.575Z,164.43
2018-06-08T00:27:57.452Z,144.33
2018-06-08T00:30:25.428Z,171.17
2018-06-08T00:32:53.378Z,184.13
2018-06-08T00:35:21.353Z,191.10
2018-06-08T00:37:49.231Z,189.17
2018-06-08T00:40:17.180Z,187.87
2018-06-08T00:42:45.052Z,193.37
2018-06-08T00:45:13.042Z,214.70
2018-06-08T00:47:40.896Z,194.80
2018-06-08T00:50:08.869Z,159.07
2018-06-08T00:52:37.146Z,188.13
2018-06-08T00:55:05.624Z,235.53
2018-06-08T00:57:33.578Z,210.27
2018-06-08T01:02:26.755Z,214.60
2018-06-08T01:05:29.724Z,197.07
2018-06-08T01:07:58.737Z,156.30
2018-06-08T01:10:26.750Z,152.87
2018-06-08T01:12:55.077Z,175.10
2018-06-08T01:15:23.139Z,139.13
2018-06-08T01:17:52.165Z,172.17
2018-06-08T01:20:20.086Z,154.73
2018-06-08T01:22:48.034Z,146.63
2018-06-08T01:25:15.949Z,149.40
2018-06-08T01:27:43.919Z,148.00
2018-06-08T01:30:12.170Z,143.07
2018-06-08T01:32:40.074Z,148.37
2018-06-08T01:35:08.139Z,166.93
2018-06-08T01:37:36.032Z,175.37
2018-06-08T01:40:04.014Z,181.07
2018-06-08T01:42:32.306Z,167.43
2018-06-08T01:45:00.330Z,162.97
2018-06-08T01:47:28.263Z,181.47
2018-06-08T01:49:56.497Z,153.00
2018-06-08T01:52:24.389Z,151.60
2018-06-08T01:54:52.622Z,159.10
2018-06-08T01:57:20.512Z,133.97
2018-06-08T01:59:48.398Z,150.33
2018-06-08T02:03:05.279Z,136.40
2018-06-08T02:05:33.217Z,134.33
2018-06-08T02:08:01.014Z,120.33
2018-06-08T02:10:28.679Z,114.63
2018-06-08T02:12:56.503Z,133.03
2018-06-08T02:15:31.876Z,124.80
2018-06-08T02:18:01.168Z,121.70
2018-06-08T02:20:29.175Z,116.20
2018-06-08T02:22:57.124Z,124.80
2018-06-08T02:25:25.186Z,118.87
2018-06-08T02:27:53.097Z,131.60
2018-06-08T02:30:22.953Z,130.83
2018-06-08T02:32:50.825Z,135.53
2018-06-08T02:35:34.153Z,136.27
2018-06-08T02:38:02.103Z,132.23
2018-06-08T02:40:31.240Z,160.03
2018-06-08T02:42:59.179Z,151.83
2018-06-08T02:45:27.119Z,154.07
2018-06-08T02:47:55.064Z,171.00
2018-06-08T02:50:23.065Z,172.20
2018-06-08T02:52:50.984Z,158.13
2018-06-08T02:55:18.980Z,148.13
2018-06-08T02:57:46.904Z,150.33
2018-06-08T03:00:14.858Z,162.03
2018-06-08T03:02:42.762Z,156.70
2018-06-08T03:05:12.743Z,172.87
2018-06-08T03:07:40.619Z,115.23
2018-06-08T03:10:08.589Z,124.80
2018-06-08T03:12:36.472Z,139.37
2018-06-08T03:15:07.906Z,132.50
2018-06-08T03:17:35.782Z,154.27
2018-06-08T03:20:18.312Z,170.03
2018-06-08T03:22:46.342Z,148.33
2018-06-08T03:25:14.384Z,168.43
2018-06-08T03:27:42.437Z,166.67
2018-06-08T03:30:10.259Z,145.60
2018-06-08T03:32:38.175Z,154.17
2018-06-08T03:35:05.961Z,149.47
2018-06-08T03:37:33.693Z,154.70
2018-06-08T03:40:02.940Z,178.33
2018-06-08T03:42:30.876Z,161.33
2018-06-08T03:44:58.680Z,201.00
2018-06-08T03:47:26.572Z,170.83
2018-06-08T03:49:54.340Z,175.90
2018-06-08T03:52:22.114Z,171.57
2018-06-08T03:54:49.985Z,180.63
2018-06-08T03:57:17.669Z,160.73
2018-06-08T03:59:45.506Z,149.50
2018-06-08T04:02:37.694Z,163.43
2018-06-08T04:05:05.529Z,153.77
2018-06-08T04:07:33.511Z,153.83
2018-06-08T04:10:01.341Z,160.13
2018-06-08T04:12:29.145Z,137.40
2018-06-08T04:14:56.916Z,132.00
2018-06-08T04:17:24.557Z,119.63
2018-06-08T04:19:52.424Z,140.00
2018-06-08T04:22:20.305Z,131.40
2018-06-08T04:24:48.166Z,123.40
2018-06-08T04:27:15.902Z,123.20
2018-06-08T04:29:43.661Z,121.80
2018-06-08T04:32:11.563Z,137.33
2018-06-08T04:35:04.622Z,136.40
2018-06-08T04:37:32.553Z,148.43
2018-06-08T04:40:05.564Z,138.77
2018-06-08T04:42:33.454Z,130.27
2018-06-08T04:45:04.954Z,135.33
2018-06-08T04:47:32.878Z,115.20
2018-06-08T04:50:00.594Z,115.03
2018-06-08T04:52:28.233Z,117.63
2018-06-08T04:54:55.984Z,130.30
2018-06-08T04:57:23.699Z,141.43
2018-06-08T04:59:51.456Z,92.87
2018-06-08T05:02:19.270Z,131.97
2018-06-08T05:04:47.017Z,122.03
2018-06-08T05:07:14.754Z,135.17
2018-06-08T05:09:42.570Z,137.67
2018-06-08T05:12:10.498Z,133.37
2018-06-08T05:14:38.238Z,128.50
2018-06-08T05:17:06.011Z,135.43
2018-06-08T05:19:33.760Z,117.40
2018-06-08T05:22:01.564Z,116.27
2018-06-08T05:24:29.340Z,120.90
2018-06-08T05:26:57.077Z,110.60
2018-06-08T05:29:25.074Z,104.80
2018-06-08T05:31:52.882Z,126.10
2018-06-08T05:34:20.924Z,116.30
2018-06-08T05:36:48.639Z,126.83
2018-06-08T05:39:16.783Z,150.32
2018-06-08T05:41:44.677Z,146.37
2018-06-08T05:44:28.686Z,119.07
2018-06-08T05:46:56.520Z,99.80
2018-06-08T05:49:24.325Z,109.20
2018-06-08T05:51:52.155Z,103.87
2018-06-08T05:54:20.141Z,117.13
2018-06-08T05:56:47.933Z,104.63
2018-06-08T05:59:15.871Z,101.63
2018-06-08T06:01:43.931Z,110.67
2018-06-08T06:04:12.294Z,94.27
2018-06-08T06:06:40.162Z,94.13
2018-06-08T06:09:08.820Z,107.30
2018-06-08T06:11:37.060Z,104.67
2018-06-08T06:14:06.081Z,110.43
2018-06-08T06:16:34.031Z,99.17
2018-06-08T06:19:01.848Z,109.77
2018-06-08T06:21:29.629Z,105.80
2018-06-08T06:23:57.434Z,75.57
2018-06-08T06:26:25.239Z,75.20
2018-06-08T06:28:53.177Z,79.60
2018-06-08T06:31:21.028Z,87.47
2018-06-08T06:33:48.956Z,90.47
2018-06-08T06:36:17.968Z,106.97
2018-06-08T06:38:46.039Z,97.37
2018-06-08T06:41:13.889Z,88.23
2018-06-08T06:43:41.591Z,81.77
2018-06-08T06:46:11.288Z,79.53
2018-06-08T06:48:40.680Z,85.20
2018-06-08T06:51:10.345Z,84.93
2018-06-08T06:56:03.838Z,80.37
2018-06-08T06:58:31.692Z,71.13
2018-06-08T07:00:59.532Z,72.20
2018-06-08T07:03:27.418Z,81.13
2018-06-08T07:05:55.279Z,70.00
2018-06-08T07:08:23.148Z,79.07
2018-06-08T07:10:51.011Z,81.43
2018-06-08T07:13:20.010Z,71.70
2018-06-08T07:15:48.129Z,77.30
2018-06-08T07:18:16.132Z,75.37
2018-06-08T07:20:43.966Z,65.30
2018-06-08T07:23:11.878Z,74.83
2018-06-08T07:25:40.205Z,73.87
2018-06-08T07:28:08.107Z,67.23
2018-06-08T07:30:35.995Z,70.20
2018-06-08T07:33:04.180Z,67.40
2018-06-08T07:35:32.226Z,69.83
2018-06-08T07:38:02.005Z,71.77
2018-06-08T07:40:29.993Z,72.40
2018-06-08T07:42:58.034Z,65.67
2018-06-08T07:45:25.994Z,58.10
2018-06-08T07:47:53.864Z,61.40
2018-06-08T07:50:21.855Z,66.27
2018-06-08T07:52:56.007Z,64.30
2018-06-08T07:55:32.895Z,56.27
2018-06-08T07:58:01.260Z,56.77
2018-06-08T08:00:29.138Z,50.77
2018-06-08T08:02:57.081Z,56.83
2018-06-08T08:05:25.278Z,61.97
2018-06-08T08:07:53.277Z,54.03
2018-06-08T08:10:21.488Z,55.00
2018-06-08T08:12:49.611Z,52.40
2018-06-08T08:15:17.752Z,50.00
2018-06-08T08:17:45.840Z,54.23
2018-06-08T08:20:13.736Z,57.00
2018-06-08T08:22:41.942Z,59.97
2018-06-08T08:25:09.830Z,52.97
2018-06-08T08:27:37.946Z,53.93
2018-06-08T08:30:05.979Z,55.23
2018-06-08T08:32:33.944Z,57.83
2018-06-08T08:35:02.113Z,55.80
2018-06-08T08:37:30.144Z,55.33
2018-06-08T08:39:58.295Z,57.33
2018-06-08T08:42:26.510Z,59.27
2018-06-08T08:44:54.590Z,55.37
2018-06-08T08:47:22.674Z,57.77
2018-06-08T08:49:50.624Z,55.70
2018-06-08T08:52:19.023Z,54.60
2018-06-08T08:54:47.199Z,56.23
2018-06-08T08:57:15.201Z,50.40
2018-06-08T09:02:11.740Z,52.63
2018-06-08T09:04:39.555Z,54.70
2018-06-08T09:07:07.454Z,51.63
2018-06-08T09:09:35.314Z,56.80
2018-06-08T09:12:03.146Z,53.53
2018-06-08T09:14:31.061Z,58.70
2018-06-08T09:16:58.746Z,54.73
2018-06-08T09:19:26.598Z,49.30
2018-06-08T09:21:54.476Z,52.53
2018-06-08T09:24:22.525Z,49.77
2018-06-08T09:26:50.471Z,43.57
2018-06-08T09:29:18.292Z,45.38
2018-06-08T09:31:46.353Z,45.38
2018-06-08T09:34:14.566Z,46.42
2018-06-08T09:36:42.637Z,44.60
2018-06-08T09:39:10.422Z,42.03
2018-06-08T09:41:40.426Z,45.12
2018-06-08T09:44:08.221Z,44.80
2018-06-08T09:46:36.122Z,48.78
2018-06-08T09:49:04.921Z,49.25
2018-06-08T09:51:32.905Z,46.10
2018-06-08T09:54:00.723Z,48.10
2018-06-08T09:56:36.942Z,38.33
2018-06-08T09:59:04.974Z,46.90
2018-06-08T10:01:32.939Z,40.45
2018-06-08T10:04:00.859Z,49.77
2018-06-08T10:06:28.871Z,51.25
2018-06-08T10:08:56.710Z,47.88
2018-06-08T10:11:24.593Z,48.33
2018-06-08T10:13:52.401Z,42.73
2018-06-08T10:16:20.157Z,49.27
2018-06-08T10:18:47.941Z,50.48
2018-06-08T10:21:15.637Z,52.03
2018-06-08T10:23:43.440Z,53.85
2018-06-08T10:26:12.223Z,54.45
2018-06-08T10:28:40.078Z,49.93
2018-06-08T10:31:07.930Z,50.60
2018-06-08T10:33:36.245Z,46.43
2018-06-08T10:36:04.535Z,41.63
2018-06-08T10:38:33.328Z,48.68
2018-06-08T10:41:01.138Z,44.00
2018-06-08T10:43:28.955Z,44.42
2018-06-08T10:45:56.760Z,46.53
2018-06-08T10:48:24.614Z,38.95
2018-06-08T10:50:52.451Z,45.15
2018-06-08T10:53:21.241Z,46.70
2018-06-08T10:55:49.087Z,37.10
2018-06-08T10:58:16.936Z,42.98
2018-06-08T11:00:44.776Z,43.87
2018-06-08T11:03:26.187Z,38.67
2018-06-08T11:06:07.096Z,40.63
2018-06-08T11:08:34.947Z,43.73
2018-06-08T11:11:04.652Z,38.13
2018-06-08T11:13:36.444Z,43.33
2018-06-08T11:16:04.761Z,49.63
2018-06-08T11:18:32.669Z,40.40
2018-06-08T11:21:00.434Z,42.60
2018-06-08T11:23:28.610Z,42.45
2018-06-08T11:25:56.535Z,40.10
2018-06-08T11:28:24.329Z,43.53
2018-06-08T11:30:52.106Z,37.98
2018-06-08T11:33:19.878Z,39.83
2018-06-08T11:35:47.638Z,37.03
2018-06-08T11:38:15.370Z,40.12
2018-06-08T11:40:43.203Z,39.00
2018-06-08T11:43:11.030Z,35.05
2018-06-08T11:45:38.827Z,39.92
2018-06-08T11:48:06.611Z,37.17
2018-06-08T11:50:34.392Z,45.03
2018-06-08T11:53:02.177Z,37.73
2018-06-08T11:55:29.986Z,46.45
2018-06-08T11:57:57.761Z,38.50
2018-06-08T12:00:25.612Z,36.77
2018-06-08T12:02:53.377Z,35.70
2018-06-08T12:05:21.134Z,38.73
2018-06-08T12:07:48.923Z,35.48
2018-06-08T12:10:16.675Z,32.20
2018-06-08T12:12:44.461Z,34.40
2018-06-08T12:15:12.253Z,39.00
2018-06-08T12:17:40.089Z,35.33
2018-06-08T12:20:07.924Z,34.03
2018-06-08T12:22:35.713Z,33.88
2018-06-08T12:25:03.507Z,38.83
2018-06-08T12:27:31.288Z,38.25
2018-06-08T12:29:59.050Z,31.45
2018-06-08T12:32:27.139Z,34.98
2018-06-08T12:34:55.271Z,38.13
2018-06-08T12:37:23.191Z,31.37
2018-06-08T12:39:52.055Z,27.85
2018-06-08T12:42:19.890Z,30.43
2018-06-08T12:44:48.811Z,29.32
2018-06-08T12:47:16.593Z,29.72
2018-06-08T12:49:44.496Z,31.77
2018-06-08T12:52:12.326Z,34.48
2018-06-08T12:54:40.283Z,32.95
2018-06-08T12:57:08.149Z,38.45
2018-06-08T12:59:36.116Z,32.48
2018-06-08T13:02:03.972Z,37.70
2018-06-08T13:04:31.966Z,38.07
2018-06-08T13:06:59.911Z,31.35
2018-06-08T13:09:27.737Z,36.15
2018-06-08T13:11:55.514Z,36.65
2018-06-08T13:14:23.422Z,34.13
2018-06-08T13:16:51.208Z,35.17
2018-06-08T13:19:19.067Z,35.25
2018-06-08T13:21:47.191Z,32.03
2018-06-08T13:24:15.214Z,32.13
2018-06-08T13:26:44.017Z,32.45
2018-06-08T13:29:11.758Z,27.73
2018-06-08T13:31:39.699Z,40.43
2018-06-08T13:34:07.447Z,28.85
2018-06-08T13:36:35.243Z,31.55
2018-06-08T13:39:05.058Z,38.35
2018-06-08T13:41:33.049Z,30.32
2018-06-08T13:44:11.361Z,28.83
2018-06-08T13:49:08.597Z,30.17
2018-06-08T13:51:37.502Z,31.48
2018-06-08T13:54:05.424Z,28.57
2018-06-08T13:56:33.346Z,39.23
2018-06-08T13:59:01.331Z,29.63
2018-06-08T14:01:29.133Z,34.13
2018-06-08T14:03:57.024Z,33.38
2018-06-08T14:06:25.713Z,31.50
2018-06-08T14:08:53.638Z,33.53
2018-06-08T14:11:21.416Z,31.02
2018-06-08T14:14:05.376Z,29.90
2018-06-08T14:16:33.512Z,34.85
2018-06-08T14:19:02.300Z,36.50
2018-06-08T14:21:30.149Z,33.00
2018-06-08T14:23:57.935Z,31.65
2018-06-08T14:26:25.739Z,30.08
2018-06-08T14:28:53.516Z,31.75
2018-06-08T14:31:21.438Z,30.40
2018-06-08T14:33:49.256Z,29.02
2018-06-08T14:36:17.041Z,35.00
2018-06-08T14:38:44.908Z,30.10
2018-06-08T14:41:12.678Z,29.70
2018-06-08T14:43:41.698Z,32.50
2018-06-08T14:46:09.479Z,30.23
2018-06-08T14:48:37.403Z,38.78
2018-06-08T14:51:05.883Z,34.08
2018-06-08T14:53:34.835Z,33.30
2018-06-08T14:56:03.998Z,29.65
2018-06-08T14:58:33.085Z,36.38
2018-06-08T15:01:02.028Z,29.50
2018-06-08T15:03:30.880Z,27.48
2018-06-08T15:05:59.662Z,31.60
2018-06-08T15:08:29.124Z,38.02
2018-06-08T15:10:57.904Z,31.68
2018-06-08T15:13:25.938Z,29.07
2018-06-08T15:15:53.714Z,34.63
2018-06-08T15:18:21.891Z,35.78
2018-06-08T15:20:50.914Z,33.40
2018-06-08T15:23:19.368Z,26.85
2018-06-08T15:25:47.222Z,28.57
2018-06-08T15:28:15.233Z,28.73
2018-06-08T15:30:43.009Z,30.05
2018-06-08T15:33:10.889Z,37.05
2018-06-08T15:35:38.711Z,27.48
2018-06-08T15:38:06.716Z,34.25
2018-06-08T15:40:34.505Z,26.48
2018-06-08T15:43:02.537Z,30.35
2018-06-08T15:45:30.326Z,32.45
2018-06-08T15:47:58.212Z,32.67
2018-06-08T15:50:26.112Z,29.85
2018-06-08T15:52:54.179Z,27.40
2018-06-08T15:55:23.110Z,23.53
2018-06-08T15:57:50.940Z,28.30
2018-06-08T16:00:18.711Z,29.20
2018-06-08T16:02:47.106Z,32.70
2018-06-08T16:05:15.099Z,32.27
2018-06-08T16:07:43.107Z,28.30
2018-06-08T16:10:11.061Z,28.70
2018-06-08T16:12:39.466Z,27.83
2018-06-08T16:15:07.405Z,34.97
2018-06-08T16:17:35.269Z,23.33
2018-06-08T16:20:03.441Z,26.63
2018-06-08T16:22:31.291Z,31.93
2018-06-08T16:25:00.252Z,25.50
2018-06-08T16:27:28.085Z,27.67
2018-06-08T16:29:55.951Z,24.20
2018-06-08T16:32:23.719Z,26.70
2018-06-08T16:34:52.533Z,24.43
2018-06-08T16:37:20.366Z,23.53
2018-06-08T16:39:48.300Z,26.80
2018-06-08T16:42:16.118Z,21.70
2018-06-08T16:44:46.606Z,29.07
2018-06-08T16:47:15.836Z,28.57
2018-06-08T16:49:43.648Z,28.03
2018-06-08T16:52:11.588Z,31.83
2018-06-08T16:54:39.383Z,29.30
2018-06-08T16:57:08.406Z,31.13
2018-06-08T16:59:36.236Z,29.70
2018-06-08T17:02:04.136Z,35.13
2018-06-08T17:04:31.962Z,32.33
2018-06-08T17:06:59.842Z,32.07
2018-06-08T17:09:27.688Z,30.37
2018-06-08T17:11:55.554Z,32.10
2018-06-08T17:14:23.388Z,34.00
2018-06-08T17:16:51.185Z,32.70
2018-06-08T17:19:18.954Z,34.53
2018-06-08T17:21:46.830Z,31.60
2018-06-08T17:24:14.582Z,31.10
2018-06-08T17:26:43.567Z,33.53
2018-06-08T17:29:11.477Z,29.83
2018-06-08T17:31:40.294Z,32.10
2018-06-08T17:34:08.120Z,35.10
2018-06-08T17:36:37.049Z,34.70
2018-06-08T17:39:06.751Z,35.23
2018-06-08T17:41:34.701Z,30.33
2018-06-08T17:44:17.173Z,23.87
2018-06-08T17:46:45.045Z,31.83
2018-06-08T17:49:13.000Z,24.93
2018-06-08T17:51:41.171Z,23.87
2018-06-08T17:54:09.072Z,22.20
2018-06-08T17:56:37.118Z,23.57
2018-06-08T17:59:05.047Z,26.93
2018-06-08T18:01:33.087Z,29.93
2018-06-08T18:04:01.249Z,23.43
2018-06-08T18:06:29.117Z,26.73
2018-06-08T18:08:57.156Z,23.10
2018-06-08T18:11:25.028Z,35.03
2018-06-08T18:13:53.102Z,27.83
2018-06-08T18:16:21.032Z,23.53
2018-06-08T18:18:49.031Z,25.03
2018-06-08T18:21:16.898Z,24.47
2018-06-08T18:23:45.806Z,25.57
2018-06-08T18:26:13.915Z,26.50
2018-06-08T18:28:41.972Z,30.83
2018-06-08T18:31:09.857Z,22.40
2018-06-08T18:33:37.914Z,30.57
2018-06-08T18:36:05.851Z,27.77
2018-06-08T18:38:33.826Z,31.97
2018-06-08T18:41:01.865Z,28.90
2018-06-08T18:43:29.795Z,24.63
2018-06-08T18:45:57.677Z,24.30
2018-06-08T18:48:25.698Z,27.47
2018-06-08T18:50:53.593Z,25.67
2018-06-08T18:53:21.609Z,29.17
2018-06-08T18:58:23.912Z,32.53
2018-06-08T19:00:51.932Z,25.90
2018-06-08T19:03:20.155Z,34.57
2018-06-08T19:05:48.019Z,25.07
2018-06-08T19:08:16.007Z,28.80
2018-06-08T19:10:43.882Z,31.70
2018-06-08T19:13:11.934Z,31.63
2018-06-08T19:15:41.024Z,29.30
2018-06-08T19:18:09.065Z,29.43
2018-06-08T19:20:37.072Z,30.70
2018-06-08T19:23:06.074Z,32.17
2018-06-08T19:25:34.066Z,28.23
2018-06-08T19:28:02.690Z,28.47
2018-06-08T19:30:30.671Z,32.93
2018-06-08T19:32:58.736Z,30.63
2018-06-08T19:35:26.815Z,30.00
2018-06-08T19:37:54.688Z,29.50
2018-06-08T19:40:22.787Z,27.13
2018-06-08T19:42:50.629Z,25.40
2018-06-08T19:45:18.686Z,23.87
2018-06-08T19:47:46.562Z,30.57
2018-06-08T19:50:15.953Z,32.70
2018-06-08T19:52:43.887Z,29.07
2018-06-08T19:55:12.833Z,30.93
2018-06-08T19:57:40.711Z,29.30
2018-06-08T20:00:08.896Z,34.60
2018-06-08T20:03:27.175Z,33.37
2018-06-08T20:05:55.109Z,36.13
2018-06-08T20:08:23.080Z,33.55
2018-06-08T20:10:51.037Z,33.33
2018-06-08T20:13:19.038Z,30.77
2018-06-08T20:15:47.016Z,34.30
2018-06-08T20:18:15.052Z,28.90
2018-06-08T20:20:42.998Z,38.10
2018-06-08T20:23:11.126Z,38.07
2018-06-08T20:25:38.989Z,33.47
2018-06-08T20:28:07.010Z,33.20
2018-06-08T20:30:36.584Z,34.43
2018-06-08T20:33:04.678Z,31.27
2018-06-08T20:35:32.641Z,37.67
2018-06-08T20:38:00.600Z,45.70
2018-06-08T20:40:28.575Z,35.37
2018-06-08T20:42:56.632Z,51.57
2018-06-08T20:45:24.606Z,43.97
2018-06-08T20:47:52.594Z,37.43
2018-06-08T20:50:20.512Z,45.70
2018-06-08T20:52:48.543Z,37.80
2018-06-08T20:55:16.517Z,54.43
2018-06-08T20:57:55.534Z,42.03
2018-06-08T21:00:23.441Z,48.43
2018-06-08T21:02:51.469Z,43.63
2018-06-08T21:07:44.699Z,54.90
2018-06-08T21:10:12.482Z,55.40
2018-06-08T21:12:40.324Z,55.80
2018-06-08T21:15:08.145Z,57.13
2018-06-08T21:17:35.965Z,55.00
2018-06-08T21:20:03.887Z,58.67
2018-06-08T21:22:33.728Z,67.03
2018-06-08T21:25:01.601Z,62.90
2018-06-08T21:27:29.431Z,66.83
2018-06-08T21:29:57.210Z,59.47
2018-06-08T21:32:28.784Z,62.67
2018-06-08T21:34:56.664Z,65.87
2018-06-08T21:37:24.504Z,71.03
2018-06-08T21:39:53.603Z,67.80
2018-06-08T21:42:21.536Z,76.50
2018-06-08T21:44:49.380Z,77.73
2018-06-08T21:47:17.265Z,72.40
2018-06-08T21:49:45.054Z,76.97
2018-06-08T21:52:12.959Z,81.13
2018-06-08T21:54:41.811Z,89.37
2018-06-08T21:57:10.495Z,88.80
2018-06-08T21:59:38.247Z,84.00
2018-06-08T22:02:07.740Z,75.87
2018-06-08T22:04:35.555Z,74.70
2018-06-08T22:07:03.338Z,86.87
2018-06-08T22:11:56.494Z,94.60
2018-06-08T22:14:24.303Z,81.13
2018-06-08T22:16:52.095Z,86.87
2018-06-08T22:19:19.913Z,100.03
2018-06-08T22:21:47.749Z,90.27
2018-06-08T22:24:15.615Z,87.90
2018-06-08T22:26:43.418Z,87.10
2018-06-08T22:29:11.275Z,101.83
2018-06-08T22:31:39.045Z,99.47
2018-06-08T22:34:06.870Z,99.33
2018-06-08T22:36:34.612Z,108.40
2018-06-08T22:39:02.606Z,104.53
2018-06-08T22:41:30.357Z,103.53
2018-06-08T22:43:58.139Z,103.60
2018-06-08T22:46:25.926Z,91.53
2018-06-08T22:48:53.660Z,96.50
2018-06-08T22:51:21.405Z,108.90
2018-06-08T22:53:49.165Z,109.67
2018-06-08T22:56:16.969Z,96.63
2018-06-08T22:58:45.000Z,101.10
2018-06-08T23:01:12.870Z,110.90
2018-06-08T23:03:40.601Z,113.97
2018-06-08T23:06:08.367Z,111.53
2018-06-08T23:08:36.122Z,120.47
2018-06-08T23:11:04.054Z,125.20
2018-06-08T23:15:57.192Z,140.33
2018-06-08T23:18:24.983Z,121.63
2018-06-08T23:20:52.721Z,128.27
2018-06-08T23:23:20.448Z,124.43
2018-06-08T23:25:48.149Z,123.40
2018-06-08T23:28:15.987Z,121.47
2018-06-08T23:30:43.749Z,119.00
2018-06-08T23:33:11.507Z,130.07
2018-06-08T23:35:39.260Z,136.03
2018-06-08T23:38:06.992Z,136.30
2018-06-08T23:40:47.540Z,151.60
2018-06-08T23:45:44.133Z,182.10
2018-06-08T23:48:11.892Z,169.83
2018-06-08T23:50:39.650Z,162.00
2018-06-08T23:53:07.393Z,180.10
2018-06-08T23:55:35.118Z,183.73
2018-06-08T23:58:02.959Z,191.40
